Terminal Aerodrome Forecast
Issued by NWS Mt. Holly, NJ

Home | Current Version | Previous Version | Text Only | Print | Product List | Glossary On
Versions: 1 2 3 4 5 6 7 8 9 10 11 12 13 14 15 16
000
FTAK31 PANC 282333
TAFABE
TAF
PABE 282333Z 2900/2924 30010KT P6SM SKC
      TEMPO 2900/2904 30010G16KT
     FM290400 30012G18KT P6SM SKC
     FM291000 34007KT P6SM SKC
     FM292000 03010G18KT P6SM SKC=

USA.gov is the U.S. government's official web portal to all federal, state and local government web resources and services.